sensor_id;sensor_type;location;lat;lon;timestamp;P1;durP1;ratioP1;P2;durP2;ratioP2
12861;SDS011;6499;66.348;14.134;2023-06-14T00:01:58;11.77;;;5.63;;
12861;SDS011;6499;66.348;14.134;2023-06-14T00:04:24;8.27;;;4.70;;
12861;SDS011;6499;66.348;14.134;2023-06-14T00:06:51;8.50;;;5.33;;
12861;SDS011;6499;66.348;14.134;2023-06-14T00:09:19;7.13;;;5.10;;
12861;SDS011;6499;66.348;14.134;2023-06-14T00:11:46;7.90;;;5.27;;
12861;SDS011;6499;66.348;14.134;2023-06-14T00:14:12;10.17;;;5.40;;
12861;SDS011;6499;66.348;14.134;2023-06-14T00:16:39;9.57;;;5.10;;
12861;SDS011;6499;66.348;14.134;2023-06-14T00:19:07;10.83;;;5.13;;
12861;SDS011;6499;66.348;14.134;2023-06-14T00:21:35;10.97;;;4.73;;
12861;SDS011;6499;66.348;14.134;2023-06-14T00:24:01;6.87;;;4.80;;
12861;SDS011;6499;66.348;14.134;2023-06-14T00:26:30;8.03;;;4.63;;
12861;SDS011;6499;66.348;14.134;2023-06-14T00:28:57;7.60;;;4.50;;
12861;SDS011;6499;66.348;14.134;2023-06-14T00:31:24;11.33;;;5.13;;
12861;SDS011;6499;66.348;14.134;2023-06-14T00:33:51;9.33;;;4.97;;
12861;SDS011;6499;66.348;14.134;2023-06-14T00:36:17;8.80;;;5.33;;
12861;SDS011;6499;66.348;14.134;2023-06-14T00:38:44;7.73;;;5.13;;
12861;SDS011;6499;66.348;14.134;2023-06-14T00:41:10;6.93;;;5.07;;
12861;SDS011;6499;66.348;14.134;2023-06-14T00:43:38;6.47;;;5.10;;
12861;SDS011;6499;66.348;14.134;2023-06-14T00:46:05;8.07;;;5.13;;
12861;SDS011;6499;66.348;14.134;2023-06-14T00:48:31;6.80;;;5.17;;
12861;SDS011;6499;66.348;14.134;2023-06-14T00:50:59;7.60;;;5.27;;
12861;SDS011;6499;66.348;14.134;2023-06-14T00:53:28;9.03;;;5.60;;
12861;SDS011;6499;66.348;14.134;2023-06-14T00:55:56;9.43;;;5.27;;
12861;SDS011;6499;66.348;14.134;2023-06-14T00:58:22;8.70;;;5.00;;
12861;SDS011;6499;66.348;14.134;2023-06-14T01:00:51;8.37;;;5.40;;
12861;SDS011;6499;66.348;14.134;2023-06-14T01:03:17;8.73;;;4.80;;
12861;SDS011;6499;66.348;14.134;2023-06-14T01:05:48;6.70;;;5.40;;
12861;SDS011;6499;66.348;14.134;2023-06-14T01:08:20;6.97;;;5.00;;
12861;SDS011;6499;66.348;14.134;2023-06-14T01:10:51;7.93;;;5.50;;
12861;SDS011;6499;66.348;14.134;2023-06-14T01:13:20;9.70;;;5.57;;
12861;SDS011;6499;66.348;14.134;2023-06-14T01:15:47;7.90;;;5.40;;
12861;SDS011;6499;66.348;14.134;2023-06-14T01:18:16;8.37;;;4.97;;
12861;SDS011;6499;66.348;14.134;2023-06-14T01:20:44;9.23;;;5.20;;
12861;SDS011;6499;66.348;14.134;2023-06-14T01:23:13;6.40;;;4.77;;
12861;SDS011;6499;66.348;14.134;2023-06-14T01:25:40;8.57;;;5.30;;
12861;SDS011;6499;66.348;14.134;2023-06-14T01:28:10;9.07;;;4.90;;
12861;SDS011;6499;66.348;14.134;2023-06-14T01:30:38;10.17;;;5.20;;
12861;SDS011;6499;66.348;14.134;2023-06-14T01:33:09;7.27;;;4.80;;
12861;SDS011;6499;66.348;14.134;2023-06-14T01:35:36;10.57;;;5.17;;
12861;SDS011;6499;66.348;14.134;2023-06-14T01:38:03;7.13;;;5.27;;
12861;SDS011;6499;66.348;14.134;2023-06-14T01:40:31;7.83;;;4.90;;
12861;SDS011;6499;66.348;14.134;2023-06-14T01:42:58;8.03;;;4.87;;
12861;SDS011;6499;66.348;14.134;2023-06-14T01:45:25;8.60;;;5.10;;
12861;SDS011;6499;66.348;14.134;2023-06-14T01:47:52;7.57;;;4.67;;
12861;SDS011;6499;66.348;14.134;2023-06-14T01:50:18;7.30;;;4.70;;
12861;SDS011;6499;66.348;14.134;2023-06-14T01:52:45;5.97;;;5.07;;
12861;SDS011;6499;66.348;14.134;2023-06-14T01:55:12;8.37;;;4.90;;
12861;SDS011;6499;66.348;14.134;2023-06-14T01:57:40;7.87;;;5.00;;
12861;SDS011;6499;66.348;14.134;2023-06-14T02:00:07;6.30;;;4.73;;
12861;SDS011;6499;66.348;14.134;2023-06-14T02:02:37;7.93;;;5.47;;
12861;SDS011;6499;66.348;14.134;2023-06-14T02:05:04;11.57;;;5.40;;
12861;SDS011;6499;66.348;14.134;2023-06-14T02:07:30;10.13;;;5.20;;
12861;SDS011;6499;66.348;14.134;2023-06-14T02:09:57;8.27;;;5.30;;
12861;SDS011;6499;66.348;14.134;2023-06-14T02:12:23;9.10;;;5.30;;
12861;SDS011;6499;66.348;14.134;2023-06-14T02:14:51;7.67;;;5.40;;
12861;SDS011;6499;66.348;14.134;2023-06-14T02:17:19;8.87;;;5.73;;
12861;SDS011;6499;66.348;14.134;2023-06-14T02:19:45;9.10;;;5.20;;
12861;SDS011;6499;66.348;14.134;2023-06-14T02:22:12;12.13;;;5.40;;
12861;SDS011;6499;66.348;14.134;2023-06-14T02:24:40;6.53;;;4.47;;
12861;SDS011;6499;66.348;14.134;2023-06-14T02:27:06;6.27;;;4.87;;
12861;SDS011;6499;66.348;14.134;2023-06-14T02:29:33;8.33;;;5.40;;
12861;SDS011;6499;66.348;14.134;2023-06-14T02:32:01;7.13;;;5.10;;
12861;SDS011;6499;66.348;14.134;2023-06-14T02:34:28;8.50;;;4.97;;
12861;SDS011;6499;66.348;14.134;2023-06-14T02:36:54;8.83;;;4.90;;
12861;SDS011;6499;66.348;14.134;2023-06-14T02:39:22;7.43;;;5.23;;
12861;SDS011;6499;66.348;14.134;2023-06-14T02:41:48;8.13;;;5.37;;
12861;SDS011;6499;66.348;14.134;2023-06-14T02:44:17;7.07;;;5.20;;
12861;SDS011;6499;66.348;14.134;2023-06-14T02:46:43;6.47;;;4.90;;
12861;SDS011;6499;66.348;14.134;2023-06-14T02:49:12;10.13;;;4.90;;
12861;SDS011;6499;66.348;14.134;2023-06-14T02:51:38;13.07;;;5.00;;
12861;SDS011;6499;66.348;14.134;2023-06-14T02:54:05;8.20;;;5.13;;
12861;SDS011;6499;66.348;14.134;2023-06-14T02:56:32;12.27;;;5.57;;
12861;SDS011;6499;66.348;14.134;2023-06-14T02:58:58;10.83;;;5.33;;
12861;SDS011;6499;66.348;14.134;2023-06-14T03:01:25;7.93;;;5.27;;
12861;SDS011;6499;66.348;14.134;2023-06-14T03:03:58;10.60;;;5.17;;
12861;SDS011;6499;66.348;14.134;2023-06-14T03:06:26;8.70;;;5.30;;
12861;SDS011;6499;66.348;14.134;2023-06-14T03:08:54;9.47;;;5.10;;
12861;SDS011;6499;66.348;14.134;2023-06-14T03:11:24;7.20;;;4.87;;
12861;SDS011;6499;66.348;14.134;2023-06-14T03:13:50;9.13;;;5.27;;
12861;SDS011;6499;66.348;14.134;2023-06-14T03:16:17;8.50;;;4.77;;
12861;SDS011;6499;66.348;14.134;2023-06-14T03:18:44;10.07;;;5.00;;
12861;SDS011;6499;66.348;14.134;2023-06-14T03:21:11;8.97;;;5.10;;
12861;SDS011;6499;66.348;14.134;2023-06-14T03:23:39;7.23;;;4.33;;
12861;SDS011;6499;66.348;14.134;2023-06-14T03:26:05;7.37;;;4.80;;
12861;SDS011;6499;66.348;14.134;2023-06-14T03:28:32;8.40;;;5.20;;
12861;SDS011;6499;66.348;14.134;2023-06-14T03:30:58;10.60;;;4.87;;
12861;SDS011;6499;66.348;14.134;2023-06-14T03:33:24;12.67;;;5.60;;
12861;SDS011;6499;66.348;14.134;2023-06-14T03:35:51;10.47;;;5.13;;
12861;SDS011;6499;66.348;14.134;2023-06-14T03:38:18;10.67;;;4.80;;
12861;SDS011;6499;66.348;14.134;2023-06-14T03:40:46;8.00;;;4.57;;
12861;SDS011;6499;66.348;14.134;2023-06-14T03:43:12;9.57;;;5.53;;
12861;SDS011;6499;66.348;14.134;2023-06-14T03:45:39;10.93;;;4.97;;
12861;SDS011;6499;66.348;14.134;2023-06-14T03:48:05;11.00;;;4.63;;
12861;SDS011;6499;66.348;14.134;2023-06-14T03:50:33;9.30;;;5.03;;
12861;SDS011;6499;66.348;14.134;2023-06-14T03:53:03;8.77;;;4.67;;
12861;SDS011;6499;66.348;14.134;2023-06-14T03:55:30;6.27;;;4.93;;
12861;SDS011;6499;66.348;14.134;2023-06-14T03:57:59;8.27;;;5.27;;
12861;SDS011;6499;66.348;14.134;2023-06-14T04:00:26;7.50;;;5.13;;
12861;SDS011;6499;66.348;14.134;2023-06-14T04:02:52;8.10;;;5.43;;
12861;SDS011;6499;66.348;14.134;2023-06-14T04:05:19;8.57;;;5.37;;
12861;SDS011;6499;66.348;14.134;2023-06-14T04:07:46;8.47;;;5.10;;
12861;SDS011;6499;66.348;14.134;2023-06-14T04:10:13;8.27;;;5.37;;
12861;SDS011;6499;66.348;14.134;2023-06-14T04:12:40;10.57;;;5.30;;
12861;SDS011;6499;66.348;14.134;2023-06-14T04:15:09;8.17;;;5.63;;
12861;SDS011;6499;66.348;14.134;2023-06-14T04:17:36;6.73;;;4.87;;
12861;SDS011;6499;66.348;14.134;2023-06-14T04:20:03;10.70;;;4.80;;
12861;SDS011;6499;66.348;14.134;2023-06-14T04:22:32;7.13;;;4.90;;
12861;SDS011;6499;66.348;14.134;2023-06-14T04:24:58;7.30;;;4.73;;
12861;SDS011;6499;66.348;14.134;2023-06-14T04:27:25;7.97;;;4.90;;
12861;SDS011;6499;66.348;14.134;2023-06-14T04:29:52;8.53;;;4.60;;
12861;SDS011;6499;66.348;14.134;2023-06-14T04:32:23;10.27;;;5.40;;
12861;SDS011;6499;66.348;14.134;2023-06-14T04:34:52;10.40;;;5.70;;
12861;SDS011;6499;66.348;14.134;2023-06-14T04:37:18;11.27;;;5.47;;
12861;SDS011;6499;66.348;14.134;2023-06-14T04:39:46;8.37;;;5.20;;
12861;SDS011;6499;66.348;14.134;2023-06-14T04:42:12;9.00;;;5.27;;
12861;SDS011;6499;66.348;14.134;2023-06-14T04:44:40;7.60;;;5.13;;
12861;SDS011;6499;66.348;14.134;2023-06-14T04:47:06;8.43;;;4.83;;
12861;SDS011;6499;66.348;14.134;2023-06-14T04:49:34;11.43;;;5.30;;
12861;SDS011;6499;66.348;14.134;2023-06-14T04:52:01;10.53;;;5.33;;
12861;SDS011;6499;66.348;14.134;2023-06-14T04:54:27;7.47;;;5.50;;
12861;SDS011;6499;66.348;14.134;2023-06-14T04:56:56;9.23;;;4.70;;
12861;SDS011;6499;66.348;14.134;2023-06-14T04:59:23;7.67;;;4.50;;
12861;SDS011;6499;66.348;14.134;2023-06-14T05:01:50;8.90;;;5.17;;
12861;SDS011;6499;66.348;14.134;2023-06-14T05:04:16;6.77;;;5.00;;
12861;SDS011;6499;66.348;14.134;2023-06-14T05:06:45;8.30;;;4.87;;
12861;SDS011;6499;66.348;14.134;2023-06-14T05:09:13;8.80;;;5.03;;
12861;SDS011;6499;66.348;14.134;2023-06-14T05:11:40;8.60;;;4.63;;
12861;SDS011;6499;66.348;14.134;2023-06-14T05:14:07;7.13;;;4.90;;
12861;SDS011;6499;66.348;14.134;2023-06-14T05:16:33;12.47;;;5.33;;
12861;SDS011;6499;66.348;14.134;2023-06-14T05:19:00;12.17;;;5.40;;
12861;SDS011;6499;66.348;14.134;2023-06-14T05:21:27;8.73;;;5.10;;
12861;SDS011;6499;66.348;14.134;2023-06-14T05:23:55;10.03;;;5.30;;
12861;SDS011;6499;66.348;14.134;2023-06-14T05:26:22;9.60;;;4.43;;
12861;SDS011;6499;66.348;14.134;2023-06-14T05:28:53;7.43;;;4.33;;
12861;SDS011;6499;66.348;14.134;2023-06-14T05:31:21;8.77;;;4.63;;
12861;SDS011;6499;66.348;14.134;2023-06-14T05:33:48;10.73;;;5.10;;
12861;SDS011;6499;66.348;14.134;2023-06-14T05:36:14;8.50;;;4.73;;
12861;SDS011;6499;66.348;14.134;2023-06-14T05:38:41;9.20;;;5.10;;
12861;SDS011;6499;66.348;14.134;2023-06-14T05:41:09;7.80;;;4.90;;
12861;SDS011;6499;66.348;14.134;2023-06-14T05:43:35;8.20;;;4.33;;
12861;SDS011;6499;66.348;14.134;2023-06-14T05:46:02;7.27;;;4.53;;
12861;SDS011;6499;66.348;14.134;2023-06-14T05:48:28;10.03;;;4.97;;
12861;SDS011;6499;66.348;14.134;2023-06-14T05:50:55;7.07;;;4.83;;
12861;SDS011;6499;66.348;14.134;2023-06-14T05:53:21;10.00;;;4.43;;
12861;SDS011;6499;66.348;14.134;2023-06-14T05:55:48;6.47;;;4.13;;
12861;SDS011;6499;66.348;14.134;2023-06-14T05:58:16;8.17;;;4.80;;
12861;SDS011;6499;66.348;14.134;2023-06-14T06:00:43;8.40;;;4.20;;
12861;SDS011;6499;66.348;14.134;2023-06-14T06:03:09;10.23;;;4.83;;
12861;SDS011;6499;66.348;14.134;2023-06-14T06:05:38;8.33;;;4.53;;
12861;SDS011;6499;66.348;14.134;2023-06-14T06:08:04;7.23;;;4.43;;
12861;SDS011;6499;66.348;14.134;2023-06-14T06:10:31;7.93;;;4.60;;
12861;SDS011;6499;66.348;14.134;2023-06-14T06:12:58;7.53;;;4.53;;
12861;SDS011;6499;66.348;14.134;2023-06-14T06:15:25;7.63;;;4.37;;
12861;SDS011;6499;66.348;14.134;2023-06-14T06:17:52;8.10;;;4.53;;
12861;SDS011;6499;66.348;14.134;2023-06-14T06:20:18;10.43;;;4.53;;
12861;SDS011;6499;66.348;14.134;2023-06-14T06:22:46;9.10;;;4.13;;
12861;SDS011;6499;66.348;14.134;2023-06-14T06:25:13;6.27;;;4.37;;
12861;SDS011;6499;66.348;14.134;2023-06-14T06:27:39;9.27;;;4.77;;
12861;SDS011;6499;66.348;14.134;2023-06-14T06:30:06;8.03;;;4.63;;
12861;SDS011;6499;66.348;14.134;2023-06-14T06:32:34;9.80;;;4.40;;
12861;SDS011;6499;66.348;14.134;2023-06-14T06:35:01;6.83;;;3.97;;
12861;SDS011;6499;66.348;14.134;2023-06-14T06:37:28;7.30;;;4.57;;
12861;SDS011;6499;66.348;14.134;2023-06-14T06:39:55;7.30;;;4.10;;
12861;SDS011;6499;66.348;14.134;2023-06-14T06:42:21;7.90;;;4.50;;
12861;SDS011;6499;66.348;14.134;2023-06-14T06:44:47;7.23;;;4.43;;
12861;SDS011;6499;66.348;14.134;2023-06-14T06:47:14;8.47;;;4.47;;
12861;SDS011;6499;66.348;14.134;2023-06-14T06:49:42;7.83;;;4.20;;
12861;SDS011;6499;66.348;14.134;2023-06-14T06:52:09;5.77;;;4.20;;
12861;SDS011;6499;66.348;14.134;2023-06-14T06:54:35;7.80;;;4.13;;
12861;SDS011;6499;66.348;14.134;2023-06-14T06:57:02;7.33;;;4.50;;
12861;SDS011;6499;66.348;14.134;2023-06-14T06:59:28;8.07;;;3.93;;
12861;SDS011;6499;66.348;14.134;2023-06-14T07:01:55;5.60;;;3.97;;
12861;SDS011;6499;66.348;14.134;2023-06-14T07:04:22;7.17;;;4.30;;
12861;SDS011;6499;66.348;14.134;2023-06-14T07:06:49;6.10;;;3.90;;
12861;SDS011;6499;66.348;14.134;2023-06-14T07:09:16;7.33;;;4.20;;
12861;SDS011;6499;66.348;14.134;2023-06-14T07:11:45;7.17;;;4.10;;
12861;SDS011;6499;66.348;14.134;2023-06-14T07:14:11;7.80;;;4.07;;
12861;SDS011;6499;66.348;14.134;2023-06-14T07:16:38;7.13;;;3.83;;
12861;SDS011;6499;66.348;14.134;2023-06-14T07:19:06;6.63;;;4.10;;
12861;SDS011;6499;66.348;14.134;2023-06-14T07:21:32;4.90;;;3.93;;
12861;SDS011;6499;66.348;14.134;2023-06-14T07:24:00;7.33;;;4.23;;
12861;SDS011;6499;66.348;14.134;2023-06-14T07:26:27;11.10;;;4.30;;
12861;SDS011;6499;66.348;14.134;2023-06-14T07:28:53;8.37;;;4.30;;
12861;SDS011;6499;66.348;14.134;2023-06-14T07:31:20;6.23;;;4.60;;
12861;SDS011;6499;66.348;14.134;2023-06-14T07:33:46;6.53;;;4.33;;
12861;SDS011;6499;66.348;14.134;2023-06-14T07:36:13;9.60;;;3.87;;
12861;SDS011;6499;66.348;14.134;2023-06-14T07:38:39;9.37;;;3.97;;
12861;SDS011;6499;66.348;14.134;2023-06-14T07:41:08;7.97;;;3.83;;
12861;SDS011;6499;66.348;14.134;2023-06-14T07:43:34;8.80;;;4.30;;
12861;SDS011;6499;66.348;14.134;2023-06-14T07:46:01;7.87;;;4.20;;
12861;SDS011;6499;66.348;14.134;2023-06-14T07:48:28;8.03;;;4.40;;
12861;SDS011;6499;66.348;14.134;2023-06-14T07:50:54;5.93;;;3.97;;
12861;SDS011;6499;66.348;14.134;2023-06-14T07:53:21;7.73;;;4.20;;
12861;SDS011;6499;66.348;14.134;2023-06-14T07:55:48;7.27;;;4.03;;
12861;SDS011;6499;66.348;14.134;2023-06-14T07:58:17;7.13;;;3.83;;
12861;SDS011;6499;66.348;14.134;2023-06-14T08:00:43;6.07;;;4.10;;
12861;SDS011;6499;66.348;14.134;2023-06-14T08:03:11;9.97;;;4.30;;
12861;SDS011;6499;66.348;14.134;2023-06-14T08:05:37;5.90;;;3.87;;
12861;SDS011;6499;66.348;14.134;2023-06-14T08:08:04;5.83;;;3.53;;
12861;SDS011;6499;66.348;14.134;2023-06-14T08:10:30;6.77;;;4.03;;
12861;SDS011;6499;66.348;14.134;2023-06-14T08:12:57;10.23;;;4.70;;
12861;SDS011;6499;66.348;14.134;2023-06-14T08:15:25;7.73;;;3.63;;
12861;SDS011;6499;66.348;14.134;2023-06-14T08:17:51;6.30;;;4.30;;
12861;SDS011;6499;66.348;14.134;2023-06-14T08:20:18;8.80;;;4.03;;
12861;SDS011;6499;66.348;14.134;2023-06-14T08:22:44;5.33;;;4.00;;
12861;SDS011;6499;66.348;14.134;2023-06-14T08:25:13;7.97;;;3.37;;
12861;SDS011;6499;66.348;14.134;2023-06-14T08:27:40;9.70;;;3.93;;
12861;SDS011;6499;66.348;14.134;2023-06-14T08:30:07;6.97;;;4.07;;
12861;SDS011;6499;66.348;14.134;2023-06-14T08:32:35;8.03;;;4.40;;
12861;SDS011;6499;66.348;14.134;2023-06-14T08:35:02;5.93;;;3.70;;
12861;SDS011;6499;66.348;14.134;2023-06-14T08:37:30;6.30;;;3.70;;
12861;SDS011;6499;66.348;14.134;2023-06-14T08:39:58;9.40;;;4.13;;
12861;SDS011;6499;66.348;14.134;2023-06-14T08:42:30;7.27;;;3.90;;
12861;SDS011;6499;66.348;14.134;2023-06-14T08:44:58;7.63;;;4.10;;
12861;SDS011;6499;66.348;14.134;2023-06-14T08:47:24;7.37;;;3.80;;
12861;SDS011;6499;66.348;14.134;2023-06-14T08:49:53;8.10;;;3.63;;
12861;SDS011;6499;66.348;14.134;2023-06-14T08:52:22;4.80;;;3.60;;
12861;SDS011;6499;66.348;14.134;2023-06-14T08:54:50;6.03;;;3.90;;
12861;SDS011;6499;66.348;14.134;2023-06-14T08:57:16;5.27;;;3.50;;
12861;SDS011;6499;66.348;14.134;2023-06-14T08:59:46;9.10;;;4.00;;
12861;SDS011;6499;66.348;14.134;2023-06-14T09:02:14;7.23;;;3.70;;
12861;SDS011;6499;66.348;14.134;2023-06-14T09:04:43;5.33;;;3.90;;
12861;SDS011;6499;66.348;14.134;2023-06-14T09:07:11;5.90;;;3.63;;
12861;SDS011;6499;66.348;14.134;2023-06-14T09:09:38;6.73;;;4.00;;
12861;SDS011;6499;66.348;14.134;2023-06-14T09:12:06;6.60;;;3.80;;
12861;SDS011;6499;66.348;14.134;2023-06-14T09:14:35;6.77;;;4.00;;
12861;SDS011;6499;66.348;14.134;2023-06-14T09:17:03;5.27;;;3.40;;
12861;SDS011;6499;66.348;14.134;2023-06-14T09:19:30;5.30;;;3.43;;
12861;SDS011;6499;66.348;14.134;2023-06-14T09:21:57;7.53;;;3.97;;
12861;SDS011;6499;66.348;14.134;2023-06-14T09:24:25;4.97;;;3.40;;
12861;SDS011;6499;66.348;14.134;2023-06-14T09:26:52;5.50;;;3.60;;
12861;SDS011;6499;66.348;14.134;2023-06-14T09:29:19;6.63;;;3.50;;
12861;SDS011;6499;66.348;14.134;2023-06-14T09:31:46;6.00;;;3.60;;
12861;SDS011;6499;66.348;14.134;2023-06-14T09:34:13;7.13;;;3.57;;
12861;SDS011;6499;66.348;14.134;2023-06-14T09:36:40;5.60;;;3.80;;
12861;SDS011;6499;66.348;14.134;2023-06-14T09:39:07;6.30;;;3.57;;
12861;SDS011;6499;66.348;14.134;2023-06-14T09:41:36;6.30;;;3.80;;
12861;SDS011;6499;66.348;14.134;2023-06-14T09:44:03;8.70;;;3.90;;
12861;SDS011;6499;66.348;14.134;2023-06-14T09:46:30;5.73;;;3.40;;
12861;SDS011;6499;66.348;14.134;2023-06-14T09:48:57;5.07;;;3.83;;
12861;SDS011;6499;66.348;14.134;2023-06-14T09:51:24;6.67;;;4.13;;
12861;SDS011;6499;66.348;14.134;2023-06-14T09:53:51;7.90;;;3.60;;
12861;SDS011;6499;66.348;14.134;2023-06-14T09:56:18;6.27;;;3.87;;
12861;SDS011;6499;66.348;14.134;2023-06-14T09:58:48;6.03;;;3.60;;
12861;SDS011;6499;66.348;14.134;2023-06-14T10:01:16;5.80;;;3.80;;
12861;SDS011;6499;66.348;14.134;2023-06-14T10:03:43;5.50;;;3.60;;
12861;SDS011;6499;66.348;14.134;2023-06-14T10:06:11;4.77;;;3.70;;
12861;SDS011;6499;66.348;14.134;2023-06-14T10:08:38;5.10;;;3.33;;
12861;SDS011;6499;66.348;14.134;2023-06-14T10:11:06;9.07;;;3.70;;
12861;SDS011;6499;66.348;14.134;2023-06-14T10:13:33;8.20;;;3.93;;
12861;SDS011;6499;66.348;14.134;2023-06-14T10:16:03;7.17;;;3.93;;
12861;SDS011;6499;66.348;14.134;2023-06-14T10:18:33;5.63;;;4.00;;
12861;SDS011;6499;66.348;14.134;2023-06-14T10:21:04;9.47;;;4.10;;
12861;SDS011;6499;66.348;14.134;2023-06-14T10:23:35;6.40;;;3.90;;
12861;SDS011;6499;66.348;14.134;2023-06-14T10:26:03;6.33;;;3.87;;
12861;SDS011;6499;66.348;14.134;2023-06-14T10:28:30;8.23;;;4.20;;
12861;SDS011;6499;66.348;14.134;2023-06-14T10:31:08;5.83;;;3.70;;
12861;SDS011;6499;66.348;14.134;2023-06-14T10:33:35;6.93;;;3.93;;
12861;SDS011;6499;66.348;14.134;2023-06-14T10:38:54;6.90;;;3.83;;
12861;SDS011;6499;66.348;14.134;2023-06-14T10:41:22;5.47;;;3.80;;
12861;SDS011;6499;66.348;14.134;2023-06-14T10:43:50;6.00;;;3.43;;
12861;SDS011;6499;66.348;14.134;2023-06-14T10:46:18;7.17;;;4.13;;
12861;SDS011;6499;66.348;14.134;2023-06-14T10:48:48;7.60;;;3.83;;
12861;SDS011;6499;66.348;14.134;2023-06-14T10:51:15;6.10;;;3.87;;
12861;SDS011;6499;66.348;14.134;2023-06-14T10:53:45;7.87;;;3.93;;
12861;SDS011;6499;66.348;14.134;2023-06-14T10:56:16;6.47;;;4.03;;
12861;SDS011;6499;66.348;14.134;2023-06-14T10:58:49;8.67;;;4.30;;
12861;SDS011;6499;66.348;14.134;2023-06-14T11:01:18;5.40;;;3.63;;
12861;SDS011;6499;66.348;14.134;2023-06-14T11:03:50;5.97;;;3.90;;
12861;SDS011;6499;66.348;14.134;2023-06-14T11:06:19;8.07;;;3.80;;
12861;SDS011;6499;66.348;14.134;2023-06-14T11:08:57;7.27;;;4.30;;
12861;SDS011;6499;66.348;14.134;2023-06-14T11:11:29;5.40;;;3.57;;
12861;SDS011;6499;66.348;14.134;2023-06-14T11:13:57;6.20;;;3.80;;
12861;SDS011;6499;66.348;14.134;2023-06-14T11:16:27;7.50;;;3.30;;
12861;SDS011;6499;66.348;14.134;2023-06-14T11:18:54;4.97;;;3.80;;
12861;SDS011;6499;66.348;14.134;2023-06-14T11:21:20;6.37;;;4.53;;
12861;SDS011;6499;66.348;14.134;2023-06-14T11:23:50;6.10;;;3.67;;
12861;SDS011;6499;66.348;14.134;2023-06-14T11:26:23;7.37;;;3.90;;
12861;SDS011;6499;66.348;14.134;2023-06-14T11:28:54;8.13;;;3.80;;
12861;SDS011;6499;66.348;14.134;2023-06-14T11:31:21;7.93;;;3.50;;
12861;SDS011;6499;66.348;14.134;2023-06-14T11:33:50;6.43;;;3.60;;
12861;SDS011;6499;66.348;14.134;2023-06-14T11:36:19;6.43;;;3.60;;
12861;SDS011;6499;66.348;14.134;2023-06-14T11:38:45;7.00;;;3.47;;
12861;SDS011;6499;66.348;14.134;2023-06-14T11:41:12;5.27;;;3.77;;
12861;SDS011;6499;66.348;14.134;2023-06-14T11:43:39;7.63;;;3.97;;
12861;SDS011;6499;66.348;14.134;2023-06-14T11:46:12;5.77;;;3.57;;
12861;SDS011;6499;66.348;14.134;2023-06-14T11:48:39;6.60;;;3.97;;
12861;SDS011;6499;66.348;14.134;2023-06-14T11:51:07;8.63;;;3.63;;
12861;SDS011;6499;66.348;14.134;2023-06-14T11:53:34;7.73;;;3.90;;
12861;SDS011;6499;66.348;14.134;2023-06-14T11:56:01;5.77;;;4.13;;
12861;SDS011;6499;66.348;14.134;2023-06-14T11:58:28;6.70;;;3.80;;
12861;SDS011;6499;66.348;14.134;2023-06-14T12:00:55;7.40;;;3.90;;
12861;SDS011;6499;66.348;14.134;2023-06-14T12:03:25;6.07;;;3.40;;
12861;SDS011;6499;66.348;14.134;2023-06-14T12:06:01;6.67;;;3.63;;
12861;SDS011;6499;66.348;14.134;2023-06-14T12:08:33;4.60;;;3.70;;
12861;SDS011;6499;66.348;14.134;2023-06-14T12:11:04;5.40;;;3.77;;
12861;SDS011;6499;66.348;14.134;2023-06-14T12:13:30;9.23;;;4.40;;
12861;SDS011;6499;66.348;14.134;2023-06-14T12:15:57;7.20;;;3.97;;
12861;SDS011;6499;66.348;14.134;2023-06-14T12:18:31;6.57;;;4.00;;
12861;SDS011;6499;66.348;14.134;2023-06-14T12:20:58;8.40;;;3.60;;
12861;SDS011;6499;66.348;14.134;2023-06-14T12:23:27;5.67;;;4.07;;
12861;SDS011;6499;66.348;14.134;2023-06-14T12:26:05;8.67;;;3.90;;
12861;SDS011;6499;66.348;14.134;2023-06-14T12:28:32;8.90;;;3.47;;
12861;SDS011;6499;66.348;14.134;2023-06-14T12:30:59;6.23;;;3.53;;
12861;SDS011;6499;66.348;14.134;2023-06-14T12:33:25;5.43;;;3.90;;
12861;SDS011;6499;66.348;14.134;2023-06-14T12:35:54;6.73;;;3.67;;
12861;SDS011;6499;66.348;14.134;2023-06-14T12:38:21;5.63;;;3.90;;
12861;SDS011;6499;66.348;14.134;2023-06-14T12:40:47;6.43;;;3.67;;
12861;SDS011;6499;66.348;14.134;2023-06-14T12:49:29;5.07;;;4.03;;
12861;SDS011;6499;66.348;14.134;2023-06-14T12:52:06;6.33;;;4.07;;
12861;SDS011;6499;66.348;14.134;2023-06-14T12:54:37;5.03;;;3.77;;
12861;SDS011;6499;66.348;14.134;2023-06-14T12:57:06;6.50;;;3.97;;
12861;SDS011;6499;66.348;14.134;2023-06-14T12:59:33;6.23;;;3.80;;
12861;SDS011;6499;66.348;14.134;2023-06-14T13:05:09;6.47;;;3.80;;
12861;SDS011;6499;66.348;14.134;2023-06-14T13:07:36;6.80;;;3.90;;
12861;SDS011;6499;66.348;14.134;2023-06-14T13:10:03;4.93;;;3.47;;
12861;SDS011;6499;66.348;14.134;2023-06-14T13:12:30;6.70;;;3.80;;
12861;SDS011;6499;66.348;14.134;2023-06-14T13:14:56;7.90;;;3.57;;
12861;SDS011;6499;66.348;14.134;2023-06-14T13:17:23;6.57;;;3.57;;
12861;SDS011;6499;66.348;14.134;2023-06-14T13:19:50;6.57;;;4.00;;
12861;SDS011;6499;66.348;14.134;2023-06-14T13:22:18;6.53;;;3.77;;
12861;SDS011;6499;66.348;14.134;2023-06-14T13:24:58;6.60;;;3.83;;
12861;SDS011;6499;66.348;14.134;2023-06-14T13:27:26;5.17;;;3.43;;
12861;SDS011;6499;66.348;14.134;2023-06-14T13:29:56;6.67;;;4.00;;
12861;SDS011;6499;66.348;14.134;2023-06-14T13:32:23;7.50;;;3.80;;
12861;SDS011;6499;66.348;14.134;2023-06-14T13:37:57;7.03;;;4.20;;
12861;SDS011;6499;66.348;14.134;2023-06-14T13:40:30;7.47;;;4.00;;
12861;SDS011;6499;66.348;14.134;2023-06-14T13:42:56;4.53;;;3.30;;
12861;SDS011;6499;66.348;14.134;2023-06-14T13:45:23;5.63;;;3.60;;
12861;SDS011;6499;66.348;14.134;2023-06-14T13:47:49;6.90;;;4.33;;
12861;SDS011;6499;66.348;14.134;2023-06-14T13:50:26;5.20;;;3.87;;
12861;SDS011;6499;66.348;14.134;2023-06-14T13:52:58;7.57;;;4.10;;
12861;SDS011;6499;66.348;14.134;2023-06-14T13:55:33;6.37;;;3.90;;
12861;SDS011;6499;66.348;14.134;2023-06-14T13:58:12;7.93;;;4.30;;
12861;SDS011;6499;66.348;14.134;2023-06-14T14:00:40;4.00;;;3.60;;
12861;SDS011;6499;66.348;14.134;2023-06-14T14:03:06;6.37;;;4.33;;
12861;SDS011;6499;66.348;14.134;2023-06-14T14:05:34;6.53;;;4.00;;
12861;SDS011;6499;66.348;14.134;2023-06-14T14:08:02;5.97;;;3.60;;
12861;SDS011;6499;66.348;14.134;2023-06-14T14:10:29;5.80;;;3.97;;
12861;SDS011;6499;66.348;14.134;2023-06-14T14:12:55;5.83;;;4.00;;
12861;SDS011;6499;66.348;14.134;2023-06-14T14:15:22;7.07;;;4.63;;
12861;SDS011;6499;66.348;14.134;2023-06-14T14:17:48;7.40;;;3.83;;
12861;SDS011;6499;66.348;14.134;2023-06-14T14:20:15;5.93;;;3.77;;
12861;SDS011;6499;66.348;14.134;2023-06-14T14:22:42;5.57;;;3.90;;
12861;SDS011;6499;66.348;14.134;2023-06-14T14:25:10;6.83;;;4.20;;
12861;SDS011;6499;66.348;14.134;2023-06-14T14:27:37;4.20;;;3.80;;
12861;SDS011;6499;66.348;14.134;2023-06-14T14:30:04;6.07;;;4.17;;
12861;SDS011;6499;66.348;14.134;2023-06-14T14:32:31;6.33;;;4.30;;
12861;SDS011;6499;66.348;14.134;2023-06-14T14:34:57;4.30;;;3.90;;
12861;SDS011;6499;66.348;14.134;2023-06-14T14:37:24;5.67;;;3.90;;
12861;SDS011;6499;66.348;14.134;2023-06-14T14:39:52;6.20;;;3.83;;
12861;SDS011;6499;66.348;14.134;2023-06-14T14:42:21;5.70;;;4.23;;
12861;SDS011;6499;66.348;14.134;2023-06-14T14:44:47;4.20;;;3.80;;
12861;SDS011;6499;66.348;14.134;2023-06-14T14:47:14;4.33;;;3.93;;
12861;SDS011;6499;66.348;14.134;2023-06-14T14:49:40;5.53;;;3.30;;
12861;SDS011;6499;66.348;14.134;2023-06-14T14:52:07;5.10;;;4.27;;
12861;SDS011;6499;66.348;14.134;2023-06-14T14:54:33;7.00;;;4.30;;
12861;SDS011;6499;66.348;14.134;2023-06-14T14:57:01;5.77;;;3.83;;
12861;SDS011;6499;66.348;14.134;2023-06-14T14:59:29;5.53;;;4.13;;
12861;SDS011;6499;66.348;14.134;2023-06-14T15:01:55;5.67;;;4.03;;
12861;SDS011;6499;66.348;14.134;2023-06-14T15:04:22;6.80;;;3.87;;